sensor_id;sensor_type;location;lat;lon;timestamp;P1;durP1;ratioP1;P2;durP2;ratioP2
58553;SDS011;48119;53.218;6.576;2024-02-23T00:00:11;3.85;;;1.52;;
58553;SDS011;48119;53.218;6.576;2024-02-23T00:02:38;7.63;;;1.75;;
58553;SDS011;48119;53.218;6.576;2024-02-23T00:05:04;5.05;;;1.95;;
58553;SDS011;48119;53.218;6.576;2024-02-23T00:07:30;4.30;;;1.30;;
58553;SDS011;48119;53.218;6.576;2024-02-23T00:09:55;6.28;;;1.35;;
58553;SDS011;48119;53.218;6.576;2024-02-23T00:12:21;4.07;;;1.30;;
58553;SDS011;48119;53.218;6.576;2024-02-23T00:14:47;5.15;;;1.65;;
58553;SDS011;48119;53.218;6.576;2024-02-23T00:17:13;4.78;;;1.20;;
58553;SDS011;48119;53.218;6.576;2024-02-23T00:19:39;5.85;;;1.45;;
58553;SDS011;48119;53.218;6.576;2024-02-23T00:22:04;5.90;;;1.50;;
58553;SDS011;48119;53.218;6.576;2024-02-23T00:24:30;5.65;;;1.10;;
58553;SDS011;48119;53.218;6.576;2024-02-23T00:26:56;4.72;;;1.30;;
58553;SDS011;48119;53.218;6.576;2024-02-23T00:29:22;4.68;;;1.20;;
58553;SDS011;48119;53.218;6.576;2024-02-23T00:31:48;3.67;;;0.82;;
58553;SDS011;48119;53.218;6.576;2024-02-23T00:34:14;4.97;;;1.35;;
58553;SDS011;48119;53.218;6.576;2024-02-23T00:36:41;4.45;;;1.00;;
58553;SDS011;48119;53.218;6.576;2024-02-23T00:39:07;5.95;;;1.45;;
58553;SDS011;48119;53.218;6.576;2024-02-23T00:41:34;10.25;;;1.20;;
58553;SDS011;48119;53.218;6.576;2024-02-23T00:44:00;5.03;;;1.95;;
58553;SDS011;48119;53.218;6.576;2024-02-23T00:46:27;2.10;;;0.77;;
58553;SDS011;48119;53.218;6.576;2024-02-23T00:48:53;8.63;;;1.95;;
58553;SDS011;48119;53.218;6.576;2024-02-23T00:51:19;4.85;;;1.10;;
58553;SDS011;48119;53.218;6.576;2024-02-23T00:53:45;5.90;;;1.23;;
58553;SDS011;48119;53.218;6.576;2024-02-23T00:56:10;1.40;;;0.70;;
58553;SDS011;48119;53.218;6.576;2024-02-23T00:58:38;5.22;;;1.13;;
58553;SDS011;48119;53.218;6.576;2024-02-23T01:01:04;3.78;;;0.80;;
58553;SDS011;48119;53.218;6.576;2024-02-23T01:03:30;3.40;;;1.27;;
58553;SDS011;48119;53.218;6.576;2024-02-23T01:05:56;3.40;;;1.00;;
58553;SDS011;48119;53.218;6.576;2024-02-23T01:08:21;4.25;;;1.08;;
58553;SDS011;48119;53.218;6.576;2024-02-23T01:10:47;3.20;;;1.00;;
58553;SDS011;48119;53.218;6.576;2024-02-23T01:13:13;5.90;;;0.75;;
58553;SDS011;48119;53.218;6.576;2024-02-23T01:15:39;4.72;;;1.75;;
58553;SDS011;48119;53.218;6.576;2024-02-23T01:18:06;5.57;;;1.30;;
58553;SDS011;48119;53.218;6.576;2024-02-23T01:20:32;4.22;;;1.30;;
58553;SDS011;48119;53.218;6.576;2024-02-23T01:22:59;6.18;;;1.10;;
58553;SDS011;48119;53.218;6.576;2024-02-23T01:25:25;5.72;;;1.70;;
58553;SDS011;48119;53.218;6.576;2024-02-23T01:27:51;3.58;;;1.20;;
58553;SDS011;48119;53.218;6.576;2024-02-23T01:30:17;6.55;;;1.20;;
58553;SDS011;48119;53.218;6.576;2024-02-23T01:32:44;5.65;;;1.60;;
58553;SDS011;48119;53.218;6.576;2024-02-23T01:35:11;3.33;;;1.02;;
58553;SDS011;48119;53.218;6.576;2024-02-23T01:37:37;5.32;;;1.40;;
58553;SDS011;48119;53.218;6.576;2024-02-23T01:40:05;2.35;;;1.17;;
58553;SDS011;48119;53.218;6.576;2024-02-23T01:42:31;5.38;;;1.35;;
58553;SDS011;48119;53.218;6.576;2024-02-23T01:44:57;6.90;;;1.20;;
58553;SDS011;48119;53.218;6.576;2024-02-23T01:47:27;7.05;;;1.60;;
58553;SDS011;48119;53.218;6.576;2024-02-23T01:49:54;11.82;;;3.28;;
58553;SDS011;48119;53.218;6.576;2024-02-23T01:52:21;4.45;;;1.40;;
58553;SDS011;48119;53.218;6.576;2024-02-23T01:54:47;6.10;;;1.40;;
58553;SDS011;48119;53.218;6.576;2024-02-23T01:57:13;6.05;;;2.13;;
58553;SDS011;48119;53.218;6.576;2024-02-23T01:59:40;10.80;;;1.83;;
58553;SDS011;48119;53.218;6.576;2024-02-23T02:02:06;9.00;;;1.90;;
58553;SDS011;48119;53.218;6.576;2024-02-23T02:04:32;6.53;;;2.13;;
58553;SDS011;48119;53.218;6.576;2024-02-23T02:06:58;9.27;;;1.88;;
58553;SDS011;48119;53.218;6.576;2024-02-23T02:09:26;8.27;;;2.45;;
58553;SDS011;48119;53.218;6.576;2024-02-23T02:11:52;6.65;;;1.65;;
58553;SDS011;48119;53.218;6.576;2024-02-23T02:14:17;5.97;;;2.30;;
58553;SDS011;48119;53.218;6.576;2024-02-23T02:16:44;7.35;;;1.88;;
58553;SDS011;48119;53.218;6.576;2024-02-23T02:19:10;10.30;;;2.33;;
58553;SDS011;48119;53.218;6.576;2024-02-23T02:21:36;7.88;;;2.05;;
58553;SDS011;48119;53.218;6.576;2024-02-23T02:24:03;6.43;;;1.75;;
58553;SDS011;48119;53.218;6.576;2024-02-23T02:26:29;7.88;;;2.58;;
58553;SDS011;48119;53.218;6.576;2024-02-23T02:28:55;5.82;;;1.70;;
58553;SDS011;48119;53.218;6.576;2024-02-23T02:31:21;11.55;;;2.00;;
58553;SDS011;48119;53.218;6.576;2024-02-23T02:33:47;5.38;;;1.90;;
58553;SDS011;48119;53.218;6.576;2024-02-23T02:36:13;5.63;;;1.52;;
58553;SDS011;48119;53.218;6.576;2024-02-23T02:38:39;7.05;;;1.67;;
58553;SDS011;48119;53.218;6.576;2024-02-23T02:41:05;8.70;;;1.90;;
58553;SDS011;48119;53.218;6.576;2024-02-23T02:43:31;8.45;;;2.13;;
58553;SDS011;48119;53.218;6.576;2024-02-23T02:45:57;7.50;;;1.42;;
58553;SDS011;48119;53.218;6.576;2024-02-23T02:48:25;5.85;;;2.15;;
58553;SDS011;48119;53.218;6.576;2024-02-23T02:50:51;5.05;;;1.98;;
58553;SDS011;48119;53.218;6.576;2024-02-23T02:53:17;6.55;;;2.38;;
58553;SDS011;48119;53.218;6.576;2024-02-23T02:55:43;9.60;;;2.45;;
58553;SDS011;48119;53.218;6.576;2024-02-23T02:58:13;9.48;;;2.83;;
58553;SDS011;48119;53.218;6.576;2024-02-23T03:00:39;6.82;;;2.33;;
58553;SDS011;48119;53.218;6.576;2024-02-23T03:03:05;8.52;;;3.05;;
58553;SDS011;48119;53.218;6.576;2024-02-23T03:05:31;10.85;;;4.13;;
58553;SDS011;48119;53.218;6.576;2024-02-23T03:08:00;9.85;;;1.80;;
58553;SDS011;48119;53.218;6.576;2024-02-23T03:10:26;10.13;;;2.25;;
58553;SDS011;48119;53.218;6.576;2024-02-23T03:12:51;13.20;;;2.22;;
58553;SDS011;48119;53.218;6.576;2024-02-23T03:15:17;10.80;;;2.20;;
58553;SDS011;48119;53.218;6.576;2024-02-23T03:17:43;7.93;;;2.28;;
58553;SDS011;48119;53.218;6.576;2024-02-23T03:20:10;8.90;;;2.53;;
58553;SDS011;48119;53.218;6.576;2024-02-23T03:22:37;17.00;;;2.90;;
58553;SDS011;48119;53.218;6.576;2024-02-23T03:25:03;7.45;;;2.20;;
58553;SDS011;48119;53.218;6.576;2024-02-23T03:27:33;7.50;;;2.10;;
58553;SDS011;48119;53.218;6.576;2024-02-23T03:30:06;9.88;;;2.25;;
58553;SDS011;48119;53.218;6.576;2024-02-23T03:32:33;8.50;;;1.90;;
58553;SDS011;48119;53.218;6.576;2024-02-23T03:35:05;7.30;;;1.80;;
58553;SDS011;48119;53.218;6.576;2024-02-23T03:37:33;6.97;;;1.95;;
58553;SDS011;48119;53.218;6.576;2024-02-23T03:39:59;7.30;;;2.20;;
58553;SDS011;48119;53.218;6.576;2024-02-23T03:42:26;9.95;;;2.05;;
58553;SDS011;48119;53.218;6.576;2024-02-23T03:44:52;11.35;;;2.17;;
58553;SDS011;48119;53.218;6.576;2024-02-23T03:47:18;14.60;;;3.33;;
58553;SDS011;48119;53.218;6.576;2024-02-23T03:49:44;8.88;;;2.00;;
58553;SDS011;48119;53.218;6.576;2024-02-23T03:52:10;8.05;;;1.92;;
58553;SDS011;48119;53.218;6.576;2024-02-23T03:54:35;10.40;;;2.58;;
58553;SDS011;48119;53.218;6.576;2024-02-23T03:57:01;5.75;;;2.10;;
58553;SDS011;48119;53.218;6.576;2024-02-23T03:59:27;7.35;;;1.83;;
58553;SDS011;48119;53.218;6.576;2024-02-23T04:01:53;5.78;;;2.08;;
58553;SDS011;48119;53.218;6.576;2024-02-23T04:04:19;6.25;;;1.55;;
58553;SDS011;48119;53.218;6.576;2024-02-23T04:06:45;9.88;;;2.03;;
58553;SDS011;48119;53.218;6.576;2024-02-23T04:09:11;10.18;;;1.75;;
58553;SDS011;48119;53.218;6.576;2024-02-23T04:11:37;7.22;;;2.13;;
58553;SDS011;48119;53.218;6.576;2024-02-23T04:14:03;7.07;;;2.05;;
58553;SDS011;48119;53.218;6.576;2024-02-23T04:16:30;5.45;;;1.60;;
58553;SDS011;48119;53.218;6.576;2024-02-23T04:18:56;8.25;;;1.85;;
58553;SDS011;48119;53.218;6.576;2024-02-23T04:21:22;6.97;;;2.05;;
58553;SDS011;48119;53.218;6.576;2024-02-23T04:23:48;8.40;;;1.95;;
58553;SDS011;48119;53.218;6.576;2024-02-23T04:26:14;14.13;;;2.05;;
58553;SDS011;48119;53.218;6.576;2024-02-23T04:28:40;10.95;;;1.60;;
58553;SDS011;48119;53.218;6.576;2024-02-23T04:31:07;10.55;;;2.40;;
58553;SDS011;48119;53.218;6.576;2024-02-23T04:33:34;8.98;;;1.83;;
58553;SDS011;48119;53.218;6.576;2024-02-23T04:36:01;7.47;;;2.15;;
58553;SDS011;48119;53.218;6.576;2024-02-23T04:38:31;8.95;;;1.95;;
58553;SDS011;48119;53.218;6.576;2024-02-23T04:40:57;9.38;;;1.92;;
58553;SDS011;48119;53.218;6.576;2024-02-23T04:43:24;5.13;;;1.77;;
58553;SDS011;48119;53.218;6.576;2024-02-23T04:45:50;7.35;;;2.10;;
58553;SDS011;48119;53.218;6.576;2024-02-23T04:48:16;7.18;;;1.70;;
58553;SDS011;48119;53.218;6.576;2024-02-23T04:50:42;6.88;;;2.80;;
58553;SDS011;48119;53.218;6.576;2024-02-23T04:53:08;7.82;;;1.70;;
58553;SDS011;48119;53.218;6.576;2024-02-23T04:55:34;8.52;;;1.77;;
58553;SDS011;48119;53.218;6.576;2024-02-23T04:57:59;9.10;;;1.92;;
58553;SDS011;48119;53.218;6.576;2024-02-23T05:00:25;9.48;;;1.90;;
58553;SDS011;48119;53.218;6.576;2024-02-23T05:02:58;9.98;;;2.53;;
58553;SDS011;48119;53.218;6.576;2024-02-23T05:05:30;8.80;;;1.70;;
58553;SDS011;48119;53.218;6.576;2024-02-23T05:07:56;11.20;;;2.38;;
58553;SDS011;48119;53.218;6.576;2024-02-23T05:10:23;11.43;;;2.75;;
58553;SDS011;48119;53.218;6.576;2024-02-23T05:12:51;3.45;;;1.38;;
58553;SDS011;48119;53.218;6.576;2024-02-23T05:15:17;7.22;;;1.70;;
58553;SDS011;48119;53.218;6.576;2024-02-23T05:17:43;7.90;;;1.70;;
58553;SDS011;48119;53.218;6.576;2024-02-23T05:20:09;7.10;;;1.35;;
58553;SDS011;48119;53.218;6.576;2024-02-23T05:22:39;7.63;;;1.90;;
58553;SDS011;48119;53.218;6.576;2024-02-23T05:25:05;16.35;;;2.05;;
58553;SDS011;48119;53.218;6.576;2024-02-23T05:27:31;8.55;;;3.03;;
58553;SDS011;48119;53.218;6.576;2024-02-23T05:29:57;7.50;;;1.98;;
58553;SDS011;48119;53.218;6.576;2024-02-23T05:32:23;6.57;;;1.58;;
58553;SDS011;48119;53.218;6.576;2024-02-23T05:34:49;4.97;;;1.60;;
58553;SDS011;48119;53.218;6.576;2024-02-23T05:37:18;8.20;;;2.22;;
58553;SDS011;48119;53.218;6.576;2024-02-23T05:39:44;10.88;;;2.03;;
58553;SDS011;48119;53.218;6.576;2024-02-23T05:42:11;7.55;;;1.95;;
58553;SDS011;48119;53.218;6.576;2024-02-23T05:44:37;11.75;;;2.20;;
58553;SDS011;48119;53.218;6.576;2024-02-23T05:47:03;6.82;;;1.85;;
58553;SDS011;48119;53.218;6.576;2024-02-23T05:49:29;11.82;;;2.17;;
58553;SDS011;48119;53.218;6.576;2024-02-23T05:51:55;12.07;;;2.13;;
58553;SDS011;48119;53.218;6.576;2024-02-23T05:54:21;8.02;;;1.75;;
58553;SDS011;48119;53.218;6.576;2024-02-23T05:56:47;4.80;;;1.70;;
58553;SDS011;48119;53.218;6.576;2024-02-23T05:59:12;5.97;;;1.65;;
58553;SDS011;48119;53.218;6.576;2024-02-23T06:01:38;5.43;;;2.08;;
58553;SDS011;48119;53.218;6.576;2024-02-23T06:04:04;4.15;;;1.60;;
58553;SDS011;48119;53.218;6.576;2024-02-23T06:06:30;9.65;;;2.22;;
58553;SDS011;48119;53.218;6.576;2024-02-23T06:08:56;5.90;;;1.98;;
58553;SDS011;48119;53.218;6.576;2024-02-23T06:11:22;14.88;;;3.08;;
58553;SDS011;48119;53.218;6.576;2024-02-23T06:13:47;7.55;;;2.03;;
58553;SDS011;48119;53.218;6.576;2024-02-23T06:16:16;8.52;;;2.72;;
58553;SDS011;48119;53.218;6.576;2024-02-23T06:18:42;9.30;;;3.35;;
58553;SDS011;48119;53.218;6.576;2024-02-23T06:21:14;11.88;;;4.57;;
58553;SDS011;48119;53.218;6.576;2024-02-23T06:23:43;7.18;;;2.55;;
58553;SDS011;48119;53.218;6.576;2024-02-23T06:26:10;8.18;;;2.75;;
58553;SDS011;48119;53.218;6.576;2024-02-23T06:28:36;8.68;;;2.40;;
58553;SDS011;48119;53.218;6.576;2024-02-23T06:31:07;8.13;;;3.28;;
58553;SDS011;48119;53.218;6.576;2024-02-23T06:33:33;8.05;;;3.30;;
58553;SDS011;48119;53.218;6.576;2024-02-23T06:35:58;6.97;;;2.78;;
58553;SDS011;48119;53.218;6.576;2024-02-23T06:38:24;6.45;;;2.90;;
58553;SDS011;48119;53.218;6.576;2024-02-23T06:40:50;7.45;;;3.10;;
58553;SDS011;48119;53.218;6.576;2024-02-23T06:43:16;8.50;;;3.13;;
58553;SDS011;48119;53.218;6.576;2024-02-23T06:45:42;7.43;;;2.78;;
58553;SDS011;48119;53.218;6.576;2024-02-23T06:48:08;6.30;;;2.95;;
58553;SDS011;48119;53.218;6.576;2024-02-23T06:50:35;12.32;;;3.33;;
58553;SDS011;48119;53.218;6.576;2024-02-23T06:53:00;10.32;;;2.88;;
58553;SDS011;48119;53.218;6.576;2024-02-23T06:55:27;11.13;;;3.50;;
58553;SDS011;48119;53.218;6.576;2024-02-23T06:57:54;8.82;;;2.80;;
58553;SDS011;48119;53.218;6.576;2024-02-23T07:00:20;13.85;;;4.03;;
58553;SDS011;48119;53.218;6.576;2024-02-23T07:02:49;7.43;;;2.88;;
58553;SDS011;48119;53.218;6.576;2024-02-23T07:05:15;6.88;;;3.38;;
58553;SDS011;48119;53.218;6.576;2024-02-23T07:07:40;6.78;;;3.53;;
58553;SDS011;48119;53.218;6.576;2024-02-23T07:10:06;10.70;;;4.28;;
58553;SDS011;48119;53.218;6.576;2024-02-23T07:12:33;6.55;;;3.33;;
58553;SDS011;48119;53.218;6.576;2024-02-23T07:14:59;7.95;;;3.42;;
58553;SDS011;48119;53.218;6.576;2024-02-23T07:17:25;7.72;;;3.92;;
58553;SDS011;48119;53.218;6.576;2024-02-23T07:19:50;7.38;;;3.10;;
58553;SDS011;48119;53.218;6.576;2024-02-23T07:22:17;11.55;;;4.55;;
58553;SDS011;48119;53.218;6.576;2024-02-23T07:24:44;9.18;;;3.28;;
58553;SDS011;48119;53.218;6.576;2024-02-23T07:27:10;8.70;;;3.45;;
58553;SDS011;48119;53.218;6.576;2024-02-23T07:29:35;9.70;;;4.05;;
58553;SDS011;48119;53.218;6.576;2024-02-23T07:32:01;8.65;;;4.10;;
58553;SDS011;48119;53.218;6.576;2024-02-23T07:34:27;8.15;;;3.63;;
58553;SDS011;48119;53.218;6.576;2024-02-23T07:36:54;9.13;;;4.80;;
58553;SDS011;48119;53.218;6.576;2024-02-23T07:39:20;14.38;;;4.03;;
58553;SDS011;48119;53.218;6.576;2024-02-23T07:41:47;7.63;;;4.32;;
58553;SDS011;48119;53.218;6.576;2024-02-23T07:44:12;10.00;;;3.75;;
58553;SDS011;48119;53.218;6.576;2024-02-23T07:46:38;9.63;;;3.80;;
58553;SDS011;48119;53.218;6.576;2024-02-23T07:49:04;8.40;;;3.72;;
58553;SDS011;48119;53.218;6.576;2024-02-23T07:51:31;9.77;;;3.90;;
58553;SDS011;48119;53.218;6.576;2024-02-23T07:53:57;6.53;;;3.33;;
58553;SDS011;48119;53.218;6.576;2024-02-23T07:56:23;6.60;;;3.25;;
58553;SDS011;48119;53.218;6.576;2024-02-23T07:58:50;9.60;;;3.10;;
58553;SDS011;48119;53.218;6.576;2024-02-23T08:01:16;9.10;;;3.35;;
58553;SDS011;48119;53.218;6.576;2024-02-23T08:03:42;6.47;;;3.38;;
58553;SDS011;48119;53.218;6.576;2024-02-23T08:06:08;6.40;;;2.40;;
58553;SDS011;48119;53.218;6.576;2024-02-23T08:08:34;6.40;;;2.60;;
58553;SDS011;48119;53.218;6.576;2024-02-23T08:11:02;7.63;;;3.05;;
58553;SDS011;48119;53.218;6.576;2024-02-23T08:13:28;9.80;;;3.38;;
58553;SDS011;48119;53.218;6.576;2024-02-23T08:15:54;3.78;;;2.03;;
58553;SDS011;48119;53.218;6.576;2024-02-23T08:18:20;6.85;;;2.65;;
58553;SDS011;48119;53.218;6.576;2024-02-23T08:20:48;6.05;;;2.88;;
58553;SDS011;48119;53.218;6.576;2024-02-23T08:23:14;6.53;;;2.50;;
58553;SDS011;48119;53.218;6.576;2024-02-23T08:25:39;8.85;;;2.83;;
58553;SDS011;48119;53.218;6.576;2024-02-23T08:28:05;6.57;;;2.38;;
58553;SDS011;48119;53.218;6.576;2024-02-23T08:30:32;5.53;;;2.17;;
58553;SDS011;48119;53.218;6.576;2024-02-23T08:32:58;7.05;;;2.13;;
58553;SDS011;48119;53.218;6.576;2024-02-23T08:35:25;10.57;;;2.35;;
58553;SDS011;48119;53.218;6.576;2024-02-23T08:37:54;9.20;;;2.40;;
58553;SDS011;48119;53.218;6.576;2024-02-23T08:40:20;4.20;;;1.73;;
58553;SDS011;48119;53.218;6.576;2024-02-23T08:42:46;5.43;;;1.77;;
58553;SDS011;48119;53.218;6.576;2024-02-23T08:45:12;5.20;;;2.08;;
58553;SDS011;48119;53.218;6.576;2024-02-23T08:47:38;5.35;;;1.83;;
58553;SDS011;48119;53.218;6.576;2024-02-23T08:50:05;5.55;;;1.90;;
58553;SDS011;48119;53.218;6.576;2024-02-23T08:52:31;4.43;;;1.30;;
58553;SDS011;48119;53.218;6.576;2024-02-23T08:54:57;6.35;;;1.75;;
58553;SDS011;48119;53.218;6.576;2024-02-23T08:57:23;5.70;;;1.98;;
58553;SDS011;48119;53.218;6.576;2024-02-23T08:59:49;6.22;;;1.60;;
58553;SDS011;48119;53.218;6.576;2024-02-23T09:02:15;3.55;;;1.23;;
58553;SDS011;48119;53.218;6.576;2024-02-23T09:04:41;4.13;;;1.80;;
58553;SDS011;48119;53.218;6.576;2024-02-23T09:07:09;2.88;;;1.20;;
58553;SDS011;48119;53.218;6.576;2024-02-23T09:09:36;2.42;;;1.15;;
58553;SDS011;48119;53.218;6.576;2024-02-23T09:12:01;6.50;;;1.35;;
58553;SDS011;48119;53.218;6.576;2024-02-23T09:14:27;6.63;;;1.80;;
58553;SDS011;48119;53.218;6.576;2024-02-23T09:16:54;6.45;;;1.83;;
58553;SDS011;48119;53.218;6.576;2024-02-23T09:19:20;5.13;;;1.67;;
58553;SDS011;48119;53.218;6.576;2024-02-23T09:21:46;4.18;;;1.38;;
58553;SDS011;48119;53.218;6.576;2024-02-23T09:24:12;6.88;;;1.52;;
58553;SDS011;48119;53.218;6.576;2024-02-23T09:26:40;4.00;;;1.42;;
58553;SDS011;48119;53.218;6.576;2024-02-23T09:29:06;4.85;;;1.48;;
58553;SDS011;48119;53.218;6.576;2024-02-23T09:31:32;5.60;;;1.80;;
58553;SDS011;48119;53.218;6.576;2024-02-23T09:33:58;5.10;;;1.35;;
58553;SDS011;48119;53.218;6.576;2024-02-23T09:36:24;10.07;;;2.70;;
58553;SDS011;48119;53.218;6.576;2024-02-23T09:38:50;6.05;;;1.98;;
58553;SDS011;48119;53.218;6.576;2024-02-23T09:41:20;6.43;;;2.28;;
58553;SDS011;48119;53.218;6.576;2024-02-23T09:43:47;7.57;;;2.78;;
58553;SDS011;48119;53.218;6.576;2024-02-23T09:46:15;8.27;;;2.00;;
58553;SDS011;48119;53.218;6.576;2024-02-23T09:48:42;8.75;;;2.60;;
58553;SDS011;48119;53.218;6.576;2024-02-23T09:51:14;8.45;;;2.60;;
58553;SDS011;48119;53.218;6.576;2024-02-23T09:53:43;5.25;;;2.13;;
58553;SDS011;48119;53.218;6.576;2024-02-23T09:56:09;9.20;;;2.05;;
58553;SDS011;48119;53.218;6.576;2024-02-23T09:58:36;6.88;;;1.88;;
58553;SDS011;48119;53.218;6.576;2024-02-23T10:01:03;2.70;;;1.33;;
58553;SDS011;48119;53.218;6.576;2024-02-23T10:03:29;4.60;;;1.40;;
58553;SDS011;48119;53.218;6.576;2024-02-23T10:05:58;4.40;;;1.90;;
58553;SDS011;48119;53.218;6.576;2024-02-23T10:08:27;4.07;;;1.52;;
58553;SDS011;48119;53.218;6.576;2024-02-23T10:10:54;6.35;;;1.42;;
58553;SDS011;48119;53.218;6.576;2024-02-23T10:13:21;5.13;;;1.60;;
58553;SDS011;48119;53.218;6.576;2024-02-23T10:15:52;7.55;;;2.40;;
58553;SDS011;48119;53.218;6.576;2024-02-23T10:18:18;8.90;;;1.40;;
58553;SDS011;48119;53.218;6.576;2024-02-23T10:20:44;5.90;;;1.52;;
58553;SDS011;48119;53.218;6.576;2024-02-23T10:23:11;4.80;;;1.38;;
58553;SDS011;48119;53.218;6.576;2024-02-23T10:25:37;3.67;;;1.80;;
58553;SDS011;48119;53.218;6.576;2024-02-23T10:28:03;8.43;;;1.70;;
58553;SDS011;48119;53.218;6.576;2024-02-23T10:30:30;3.95;;;1.40;;
58553;SDS011;48119;53.218;6.576;2024-02-23T10:32:57;3.53;;;1.45;;
58553;SDS011;48119;53.218;6.576;2024-02-23T10:35:23;4.00;;;1.25;;
58553;SDS011;48119;53.218;6.576;2024-02-23T10:37:50;3.88;;;1.33;;
58553;SDS011;48119;53.218;6.576;2024-02-23T10:40:18;5.43;;;1.05;;
58553;SDS011;48119;53.218;6.576;2024-02-23T10:42:46;5.30;;;1.85;;
58553;SDS011;48119;53.218;6.576;2024-02-23T10:45:16;8.63;;;1.20;;
58553;SDS011;48119;53.218;6.576;2024-02-23T10:47:43;4.25;;;1.20;;
58553;SDS011;48119;53.218;6.576;2024-02-23T10:50:09;5.32;;;1.25;;
58553;SDS011;48119;53.218;6.576;2024-02-23T10:52:40;5.47;;;1.55;;
58553;SDS011;48119;53.218;6.576;2024-02-23T10:55:08;4.82;;;1.33;;
58553;SDS011;48119;53.218;6.576;2024-02-23T10:57:34;7.82;;;1.40;;
58553;SDS011;48119;53.218;6.576;2024-02-23T11:00:01;6.78;;;2.20;;
58553;SDS011;48119;53.218;6.576;2024-02-23T11:02:31;2.80;;;1.30;;
58553;SDS011;48119;53.218;6.576;2024-02-23T11:04:59;7.00;;;2.50;;
58553;SDS011;48119;53.218;6.576;2024-02-23T11:07:26;6.18;;;1.85;;
58553;SDS011;48119;53.218;6.576;2024-02-23T11:09:55;6.03;;;1.17;;
58553;SDS011;48119;53.218;6.576;2024-02-23T11:12:24;4.78;;;1.65;;
58553;SDS011;48119;53.218;6.576;2024-02-23T11:14:56;14.95;;;1.80;;
58553;SDS011;48119;53.218;6.576;2024-02-23T11:17:25;7.22;;;1.55;;
58553;SDS011;48119;53.218;6.576;2024-02-23T11:19:55;5.88;;;1.80;;
58553;SDS011;48119;53.218;6.576;2024-02-23T11:22:25;3.22;;;1.10;;
58553;SDS011;48119;53.218;6.576;2024-02-23T11:25:02;5.88;;;2.03;;
58553;SDS011;48119;53.218;6.576;2024-02-23T11:27:31;4.43;;;1.42;;
58553;SDS011;48119;53.218;6.576;2024-02-23T11:30:07;5.88;;;2.33;;
58553;SDS011;48119;53.218;6.576;2024-02-23T11:32:42;12.63;;;2.58;;
58553;SDS011;48119;53.218;6.576;2024-02-23T11:37:46;4.82;;;1.77;;
58553;SDS011;48119;53.218;6.576;2024-02-23T11:40:14;6.18;;;1.60;;
58553;SDS011;48119;53.218;6.576;2024-02-23T11:42:42;4.70;;;1.40;;
58553;SDS011;48119;53.218;6.576;2024-02-23T11:45:11;9.48;;;1.98;;
58553;SDS011;48119;53.218;6.576;2024-02-23T11:47:37;5.70;;;1.60;;
58553;SDS011;48119;53.218;6.576;2024-02-23T11:50:04;6.50;;;1.50;;
58553;SDS011;48119;53.218;6.576;2024-02-23T11:52:33;3.42;;;1.85;;
58553;SDS011;48119;53.218;6.576;2024-02-23T11:54:59;7.10;;;1.70;;
58553;SDS011;48119;53.218;6.576;2024-02-23T11:57:25;6.93;;;1.73;;
58553;SDS011;48119;53.218;6.576;2024-02-23T11:59:51;5.78;;;2.47;;
58553;SDS011;48119;53.218;6.576;2024-02-23T12:02:17;4.90;;;1.30;;
58553;SDS011;48119;53.218;6.576;2024-02-23T12:04:43;5.63;;;2.05;;
58553;SDS011;48119;53.218;6.576;2024-02-23T12:07:09;3.97;;;1.90;;
58553;SDS011;48119;53.218;6.576;2024-02-23T12:09:36;6.25;;;1.33;;
58553;SDS011;48119;53.218;6.576;2024-02-23T12:12:06;5.97;;;1.88;;
58553;SDS011;48119;53.218;6.576;2024-02-23T12:14:34;3.60;;;1.45;;
58553;SDS011;48119;53.218;6.576;2024-02-23T12:17:02;4.43;;;1.88;;
58553;SDS011;48119;53.218;6.576;2024-02-23T12:19:29;6.47;;;1.95;;
58553;SDS011;48119;53.218;6.576;2024-02-23T12:21:59;7.60;;;2.08;;
58553;SDS011;48119;53.218;6.576;2024-02-23T12:24:29;8.65;;;2.70;;
58553;SDS011;48119;53.218;6.576;2024-02-23T12:26:55;4.80;;;1.63;;
58553;SDS011;48119;53.218;6.576;2024-02-23T12:29:21;5.32;;;2.30;;
58553;SDS011;48119;53.218;6.576;2024-02-23T12:31:50;5.97;;;2.38;;
58553;SDS011;48119;53.218;6.576;2024-02-23T12:34:17;5.65;;;1.77;;
58553;SDS011;48119;53.218;6.576;2024-02-23T12:36:46;6.13;;;1.65;;
58553;SDS011;48119;53.218;6.576;2024-02-23T12:39:11;3.28;;;1.08;;
58553;SDS011;48119;53.218;6.576;2024-02-23T12:41:37;4.53;;;1.42;;
58553;SDS011;48119;53.218;6.576;2024-02-23T12:44:03;4.63;;;1.80;;
58553;SDS011;48119;53.218;6.576;2024-02-23T12:46:29;3.85;;;1.55;;
58553;SDS011;48119;53.218;6.576;2024-02-23T12:48:55;4.72;;;1.58;;
58553;SDS011;48119;53.218;6.576;2024-02-23T12:51:24;4.53;;;1.40;;
58553;SDS011;48119;53.218;6.576;2024-02-23T12:53:51;8.70;;;1.60;;
58553;SDS011;48119;53.218;6.576;2024-02-23T12:56:17;6.47;;;1.70;;
58553;SDS011;48119;53.218;6.576;2024-02-23T12:58:43;4.53;;;1.35;;
58553;SDS011;48119;53.218;6.576;2024-02-23T13:01:09;3.55;;;1.33;;
58553;SDS011;48119;53.218;6.576;2024-02-23T13:03:37;9.68;;;1.55;;
58553;SDS011;48119;53.218;6.576;2024-02-23T13:06:06;4.88;;;1.42;;
58553;SDS011;48119;53.218;6.576;2024-02-23T13:08:35;9.95;;;1.88;;
58553;SDS011;48119;53.218;6.576;2024-02-23T13:11:01;9.15;;;1.30;;
58553;SDS011;48119;53.218;6.576;2024-02-23T13:13:28;8.52;;;1.77;;
58553;SDS011;48119;53.218;6.576;2024-02-23T13:15:54;4.50;;;1.67;;
58553;SDS011;48119;53.218;6.576;2024-02-23T13:18:20;6.38;;;1.92;;
58553;SDS011;48119;53.218;6.576;2024-02-23T13:20:46;4.78;;;1.90;;
58553;SDS011;48119;53.218;6.576;2024-02-23T13:23:12;5.55;;;1.80;;
58553;SDS011;48119;53.218;6.576;2024-02-23T13:25:40;6.25;;;2.35;;
58553;SDS011;48119;53.218;6.576;2024-02-23T13:28:07;6.07;;;1.45;;
58553;SDS011;48119;53.218;6.576;2024-02-23T13:30:33;4.35;;;1.60;;
58553;SDS011;48119;53.218;6.576;2024-02-23T13:33:02;5.38;;;1.80;;
58553;SDS011;48119;53.218;6.576;2024-02-23T13:35:29;5.22;;;1.40;;
58553;SDS011;48119;53.218;6.576;2024-02-23T13:37:55;3.65;;;1.60;;
58553;SDS011;48119;53.218;6.576;2024-02-23T13:40:22;4.45;;;1.23;;
58553;SDS011;48119;53.218;6.576;2024-02-23T13:42:48;4.50;;;1.40;;
58553;SDS011;48119;53.218;6.576;2024-02-23T13:45:15;6.10;;;1.65;;
58553;SDS011;48119;53.218;6.576;2024-02-23T13:47:41;5.53;;;2.25;;
58553;SDS011;48119;53.218;6.576;2024-02-23T13:50:10;5.57;;;1.20;;
58553;SDS011;48119;53.218;6.576;2024-02-23T13:52:36;4.65;;;1.48;;
58553;SDS011;48119;53.218;6.576;2024-02-23T13:55:02;5.35;;;1.45;;
58553;SDS011;48119;53.218;6.576;2024-02-23T13:57:28;4.47;;;2.15;;
58553;SDS011;48119;53.218;6.576;2024-02-23T13:59:54;4.20;;;1.55;;
58553;SDS011;48119;53.218;6.576;2024-02-23T14:02:26;2.38;;;1.55;;
58553;SDS011;48119;53.218;6.576;2024-02-23T14:04:59;3.38;;;1.10;;
58553;SDS011;48119;53.218;6.576;2024-02-23T14:07:27;7.03;;;1.73;;
58553;SDS011;48119;53.218;6.576;2024-02-23T14:09:53;3.67;;;1.10;;
58553;SDS011;48119;53.218;6.576;2024-02-23T14:12:19;6.35;;;1.90;;
58553;SDS011;48119;53.218;6.576;2024-02-23T14:14:44;5.07;;;1.35;;
58553;SDS011;48119;53.218;6.576;2024-02-23T14:17:10;4.97;;;1.60;;
58553;SDS011;48119;53.218;6.576;2024-02-23T14:19:36;3.97;;;2.03;;
58553;SDS011;48119;53.218;6.576;2024-02-23T14:22:02;4.80;;;2.28;;
58553;SDS011;48119;53.218;6.576;2024-02-23T14:24:28;4.50;;;2.00;;
58553;SDS011;48119;53.218;6.576;2024-02-23T14:26:53;1.92;;;1.30;;
58553;SDS011;48119;53.218;6.576;2024-02-23T14:29:19;5.10;;;1.60;;
58553;SDS011;48119;53.218;6.576;2024-02-23T14:31:45;2.30;;;1.10;;
58553;SDS011;48119;53.218;6.576;2024-02-23T14:34:11;7.60;;;2.13;;
58553;SDS011;48119;53.218;6.576;2024-02-23T14:36:37;6.68;;;1.42;;
58553;SDS011;48119;53.218;6.576;2024-02-23T14:39:02;2.90;;;1.17;;
58553;SDS011;48119;53.218;6.576;2024-02-23T14:41:29;5.03;;;1.65;;
58553;SDS011;48119;53.218;6.576;2024-02-23T14:43:55;4.65;;;1.58;;